Meteo Giornale » Osservazioni meteo Stati Uniti (USA) » Laredo
ore: 19:56 - Osservazioni Meteo Laredo
Lat. 27° 33' N Lon. 99° 28' W Alt. 155 metri s.l.m.
36 °C
Poco Nuvoloso
Temp. 24 Ore
27 °C
40 °C
Est
35.2 Km/h
Dew point 22 °C
Umidità 44 %
Visibilità 10 Km
Il sole sorge alle ore 07:16
Il sole tramonta alle ore 19:59
| Data e Ora | Cielo e Fenomeni | T °C | DP °C | Um. % | Pres. hPa | Vis. km | Vento km/h | |
|---|---|---|---|---|---|---|---|---|
| Oggi h: 19:56 | Poco Nuvoloso | 36 | 22 | 44 | 1010 | 10 | E 35.2 | |
| Oggi h: 18:56 | Sereno | 39 | 15 | 24 | 1009 | 10 | E/SE 20.3 | |
| Oggi h: 17:56 | Sereno | 40 | 15 | 23 | 1009 | 10 | SE 25.9 | |
| Oggi h: 16:56 | Sereno | 40 | 16 | 24 | 1010 | 10 | N 9.3 | |
| Oggi h: 15:56 | Poco Nuvoloso | 40 | 17 | 26 | 1011 | 10 | E 14.8 | |
| Oggi h: 14:56 | Sereno | 40 | 17 | 26 | 1012 | 10 | SE 18.5 | |
| Oggi h: 13:56 | Sereno | 38 | 19 | 33 | 1013 | 10 | SE 14.8 | |
| Oggi h: 12:56 | Sereno | 37 | 21 | 39 | 1014 | 10 | S/SE 20.3 | |
| Oggi h: 11:56 | Sereno | 34 | 23 | 52 | 1014 | 10 | E/SE 18.5 | |
| Oggi h: 10:56 | Sereno | 32 | 23 | 59 | 1015 | 10 | S/SE 18.5 | |
| Oggi h: 09:56 | Poco Nuvoloso | 30 | 23 | 66 | 1015 | 10 | SE 20.3 | |
| Oggi h: 09:20 | Nuvoloso | 29 | 24 | 74 | 1015 | 10 | S/SE 20.3 | |
| Oggi h: 09:12 | Molto Nuvoloso | 28 | 24 | 78 | 1015 | 14 | SE 22.2 | |
| Oggi h: 08:56 | Nuvoloso | 28 | 24 | 78 | 1015 | 14 | SE 13 | |
| Oggi h: 07:56 | Sereno | 27 | 23 | 78 | 1014 | 14 | SE 13 | |
| Oggi h: 06:56 | Sereno | 27 | 23 | 78 | 1013 | 10 | E/SE 13 | |
| Oggi h: 05:56 | Sereno | 27 | 23 | 78 | 1013 | 10 | SE 14.8 | |
| Oggi h: 04:56 | Sereno | 28 | 23 | 74 | 1013 | 10 | SE 13 | |
| Oggi h: 03:56 | Poco Nuvoloso | 28 | 23 | 74 | 1013 | 10 | S/SE 18.5 | |
| Oggi h: 02:56 | Nuvoloso | 29 | 22 | 66 | 1013 | 10 | SE 24 | |
| Oggi h: 01:56 | Coperto | 29 | 23 | 70 | 1014 | 10 | SE 22.2 | |
| Oggi h: 00:56 | Sereno | 29 | 23 | 70 | 1014 | 10 | SE 25.9 | |
| Ieri h: 23:56 | Sereno | 30 | 23 | 66 | 1014 | 10 | SE 29.6 | |
| Ieri h: 22:56 | Sereno | 31 | 23 | 62 | 1013 | 10 | E/SE 25.9 | |
| Ieri h: 21:56 | Sereno | 32 | 23 | 59 | 1011 | 10 | E/SE 33.3 | |
| Ieri h: 20:56 | Sereno | 34 | 23 | 52 | 1011 | 10 | E/SE 40.7 | |



